Pagina principale
METAR-TAF:

METAR-TAF

Aeroporti :

Nashua, New Hampshire, Stati Uniti

latitudine: 42-47N, longitudine: 071-31W, altezza: 61 m

Osservazione

Il bollettino è stato emesso 12 minuti fa, alle 17:56 UTC
Vento 17 kt da ovest/nord-ovest con raffiche fino a 23 kt
Temperature 7°C
Umidità 31%
Pressione 1023 hPa
Visibilità: 16.1 km
Poco nuvoloso ad un'altezza di 6000 ft

METAR: KASH 181756Z 30017G23KT 10SM FEW060 07/M09 A3020 RMK AO2 SLP238 T00721094 10072 20022 58001

Ora: 14:08 (18:08 UTC)


TAF: mancante

Osservazioni e previsioni meteorologiche di più di 4000 aeroporti (messaggi METAR e TAF).

Le stazioni disponibili sono rappresentate dai dischi gialli e rossi sulla carta.

Puntare il mouse per vedere il nome della stazione.

Clicca sopra per visualizzare le osservazioni e previsioni meteorologiche.

Per cambiare la mappa : fare clic sui pulsanti verdi con una croce nera per ingrandire, il pulsante verde con un trattino per diminuire, o sulla freccia verde per le mappe adiacenti.


METAR-TAF: